Time;durP1;ratioP1;P1;durP2;ratioP2;P2;SDS_P1;SDS_P2;PMS_P1;PMS_P2;Temp;Humidity;BMP_temperature;BMP_pressure;BME280_temperature;BME280_humidity;BME280_pressure;Samples;Min_cycle;Max_cycle;Signal;HPM_P1;HPM_P2
2023/01/31 00:02:18;;;;;;;4.30;4.00;;;;;;;2.98;100.00;101400.69;5026649;28;20261;-75
2023/01/31 00:04:44;;;;;;;5.00;4.60;;;;;;;3.01;100.00;101401.66;5019829;28;20233;-76
2023/01/31 00:07:09;;;;;;;4.47;4.03;;;;;;;3.03;100.00;101391.47;5014465;28;20604;-75
2023/01/31 00:09:34;;;;;;;4.00;3.60;;;;;;;3.02;100.00;101390.63;5022996;28;20277;-74
2023/01/31 00:12:00;;;;;;;4.20;3.80;;;;;;;3.07;100.00;101387.38;5011971;28;20191;-74
2023/01/31 00:14:25;;;;;;;4.70;4.30;;;;;;;3.07;100.00;101395.06;5019543;28;20253;-74
2023/01/31 00:16:51;;;;;;;4.13;3.77;;;;;;;3.08;100.00;101390.00;5017476;28;21166;-76
2023/01/31 00:19:16;;;;;;;4.57;4.17;;;;;;;3.08;100.00;101395.09;5031143;28;20275;-74
2023/01/31 00:21:43;;;;;;;4.57;4.23;;;;;;;3.08;100.00;101392.53;5013359;28;20192;-74
2023/01/31 00:24:12;;;;;;;4.63;4.23;;;;;;;3.07;100.00;101393.34;5021414;28;20716;-74
2023/01/31 00:26:38;;;;;;;3.90;3.60;;;;;;;3.09;100.00;101396.00;5036176;28;20178;-74
2023/01/31 00:29:04;;;;;;;4.17;3.77;;;;;;;3.09;100.00;101393.44;5027861;28;20183;-74
2023/01/31 00:31:32;;;;;;;4.10;3.73;;;;;;;3.08;100.00;101400.22;5032235;28;20578;-76
2023/01/31 00:33:58;;;;;;;4.60;4.20;;;;;;;3.08;100.00;101400.22;5037588;28;20615;-76
2023/01/31 00:36:30;;;;;;;4.67;4.27;;;;;;;3.04;100.00;101398.34;5046463;28;20211;-76
2023/01/31 00:38:59;;;;;;;4.43;4.03;;;;;;;3.02;100.00;101400.84;5028348;28;20566;-74
2023/01/31 00:41:26;;;;;;;4.77;4.37;;;;;;;3.03;100.00;101394.03;5023248;28;20318;-73
2023/01/31 00:43:52;;;;;;;4.33;4.00;;;;;;;3.02;100.00;101393.19;5027725;28;20210;-74
2023/01/31 00:46:19;;;;;;;4.60;4.13;;;;;;;3.02;100.00;101393.19;5017659;28;20192;-75
2023/01/31 00:48:44;;;;;;;3.90;3.60;;;;;;;3.03;100.00;101392.38;5020037;28;20679;-73
2023/01/31 00:51:10;;;;;;;4.63;4.23;;;;;;;3.02;100.00;101393.19;5017275;28;20281;-74
2023/01/31 00:53:36;;;;;;;4.77;4.37;;;;;;;2.99;100.00;101387.06;5023702;28;20686;-75
2023/01/31 00:56:05;;;;;;;4.23;3.93;;;;;;;2.96;100.00;101385.25;5019920;28;20176;-75
2023/01/31 00:58:30;;;;;;;4.57;4.17;;;;;;;2.88;100.00;101379.81;5031442;28;20346;-74
2023/01/31 01:00:55;;;;;;;4.63;4.23;;;;;;;2.79;100.00;101376.06;5023022;28;20268;-74
2023/01/31 01:03:21;;;;;;;5.13;4.63;;;;;;;2.68;100.00;101379.03;5017663;28;20785;-73
2023/01/31 01:05:46;;;;;;;5.00;4.60;;;;;;;2.60;100.00;101382.97;5015706;28;20633;-73
2023/01/31 01:08:11;;;;;;;5.20;4.70;;;;;;;2.54;100.00;101369.91;5011904;28;20206;-74
2023/01/31 01:10:37;;;;;;;4.63;4.23;;;;;;;2.47;100.00;101373.06;5011649;28;20184;-76
2023/01/31 01:13:04;;;;;;;5.20;4.70;;;;;;;2.40;100.00;101364.25;5019916;28;20211;-74
2023/01/31 01:15:30;;;;;;;5.70;5.00;;;;;;;2.31;100.00;101372.41;5028599;28;20198;-74
2023/01/31 01:17:55;;;;;;;5.80;5.20;;;;;;;2.24;100.00;101370.38;5035366;28;20182;-74
2023/01/31 01:20:20;;;;;;;5.73;5.23;;;;;;;2.16;100.00;101377.72;5021082;28;20198;-76
2023/01/31 01:22:46;;;;;;;5.80;5.30;;;;;;;2.13;100.00;101378.47;5023500;28;20319;-74
2023/01/31 01:25:11;;;;;;;6.40;5.80;;;;;;;2.10;100.00;101375.78;5028812;28;20242;-75
2023/01/31 01:27:37;;;;;;;6.23;5.67;;;;;;;2.09;100.00;101376.56;5028878;28;20217;-76
2023/01/31 01:30:03;;;;;;;6.70;6.10;;;;;;;2.10;100.00;101380.03;5027216;28;20436;-74
2023/01/31 01:32:29;;;;;;;6.17;5.67;;;;;;;2.07;100.00;101388.41;5031350;28;20802;-74
2023/01/31 01:34:54;;;;;;;7.43;6.70;;;;;;;2.06;100.00;101384.09;5034604;28;20270;-74
2023/01/31 01:37:19;;;;;;;6.97;6.37;;;;;;;2.06;100.00;101389.22;5035606;28;20207;-74
2023/01/31 01:39:46;;;;;;;7.13;5.90;;;;;;;2.02;100.00;101377.13;5031435;28;20180;-75
2023/01/31 01:42:17;;;;;;;7.80;7.10;;;;;;;2.02;100.00;101374.59;5029974;28;20865;-74
2023/01/31 01:44:56;;;;;;;7.30;6.60;;;;;;;1.93;100.00;101377.59;5015668;28;20196;-74
2023/01/31 01:47:40;;;;;;;7.10;6.40;;;;;;;1.87;100.00;101387.53;5027430;28;20667;-74
2023/01/31 01:50:15;;;;;;;8.07;6.80;;;;;;;1.83;100.00;101389.09;5030753;28;20195;-74
2023/01/31 01:52:54;;;;;;;7.03;6.33;;;;;;;1.81;100.00;101375.38;5028125;28;20675;-75
2023/01/31 01:55:29;;;;;;;6.80;6.20;;;;;;;1.82;100.00;101377.13;5018129;28;20281;-75
2023/01/31 01:58:01;;;;;;;7.10;6.50;;;;;;;1.81;100.00;101379.63;5026680;28;20182;-74
2023/01/31 02:00:30;;;;;;;7.07;6.37;;;;;;;1.82;100.00;101378.78;5019751;28;20271;-73
2023/01/31 02:02:58;;;;;;;7.70;6.90;;;;;;;1.83;100.00;101376.31;5034955;28;20294;-73
2023/01/31 02:05:29;;;;;;;7.10;6.47;;;;;;;1.85;100.00;101372.97;5031197;28;20214;-76
2023/01/31 02:07:56;;;;;;;7.30;6.60;;;;;;;1.87;100.00;101379.00;5019681;28;20180;-74
2023/01/31 02:10:50;;;;;;;7.50;6.80;;;;;;;1.89;100.00;101379.97;5022939;28;20192;-74
2023/01/31 02:13:17;;;;;;;7.43;6.63;;;;;;;1.92;100.00;101387.72;5011078;28;20215;-75
2023/01/31 02:15:43;;;;;;;8.00;7.20;;;;;;;1.95;100.00;101385.31;5024460;28;20182;-74
2023/01/31 02:18:09;;;;;;;7.73;7.03;;;;;;;1.93;100.00;101381.81;5020895;28;20274;-72
2023/01/31 02:20:58;;;;;;;8.20;7.50;;;;;;;1.96;100.00;101384.50;5028014;28;20183;-75
2023/01/31 02:23:38;;;;;;;8.57;7.77;;;;;;;1.95;100.00;101382.75;5029217;28;20211;-76
2023/01/31 02:26:04;;;;;;;8.67;7.87;;;;;;;1.89;100.00;101390.16;5020258;28;20671;-75
2023/01/31 02:28:32;;;;;;;7.87;7.13;;;;;;;1.86;100.00;101390.88;5018475;28;20195;-75
2023/01/31 02:31:26;;;;;;;9.43;7.90;;;;;;;1.90;100.00;101402.09;5020562;28;20648;-74
2023/01/31 02:33:58;;;;;;;8.20;7.40;;;;;;;1.88;100.00;101401.19;5019158;28;20207;-74
2023/01/31 02:36:45;;;;;;;8.20;7.40;;;;;;;1.83;100.00;101406.94;5021568;28;20195;-76
2023/01/31 02:39:16;;;;;;;7.93;7.23;;;;;;;1.81;100.00;101407.69;5024991;28;20188;-74
2023/01/31 02:41:58;;;;;;;8.70;7.83;;;;;;;1.82;100.00;101405.19;5017536;28;20191;-74
2023/01/31 02:44:58;;;;;;;8.13;7.30;;;;;;;1.84;100.00;101410.38;5049493;28;20209;-75
2023/01/31 02:47:51;;;;;;;8.13;7.37;;;;;;;1.88;100.00;101414.81;4989768;28;20204;-74
2023/01/31 02:50:32;;;;;;;8.70;7.90;;;;;;;1.93;100.00;101402.25;5032052;28;20610;-76
2023/01/31 02:53:04;;;;;;;8.20;7.50;;;;;;;1.97;100.00;101402.44;5019438;28;20215;-74
2023/01/31 02:56:13;;;;;;;8.60;7.60;;;;;;;2.01;100.00;101400.03;5019743;28;20184;-75
2023/01/31 02:58:43;;;;;;;8.93;8.13;;;;;;;2.04;100.00;101398.47;4966429;28;20193;-75
2023/01/31 03:01:14;;;;;;;10.40;8.40;;;;;;;2.05;100.00;101396.81;5007827;28;20207;-74
2023/01/31 03:03:40;;;;;;;8.77;7.87;;;;;;;2.07;100.00;101405.41;5021405;28;20211;-75
2023/01/31 03:06:21;;;;;;;9.50;8.60;;;;;;;2.07;100.00;101401.16;5020250;28;20574;-75
2023/01/31 03:08:52;;;;;;;9.43;8.30;;;;;;;2.07;100.00;101403.72;5023986;28;20192;-76
2023/01/31 03:11:20;;;;;;;9.17;8.20;;;;;;;2.05;100.00;101402.78;5019483;28;20570;-75
2023/01/31 03:14:23;;;;;;;8.73;7.93;;;;;;;2.08;100.00;101395.25;5019062;28;20257;-76
2023/01/31 03:20:09;;;;;;;9.10;8.20;;;;;;;2.09;100.00;101396.16;5024386;28;20339;-75
2023/01/31 03:22:39;;;;;;;9.50;8.50;;;;;;;2.10;100.00;101387.69;5021988;28;20222;-73
2023/01/31 03:25:08;;;;;;;9.47;8.47;;;;;;;2.12;100.00;101397.16;5029990;28;20266;-75
2023/01/31 03:27:34;;;;;;;10.10;9.10;;;;;;;2.12;100.00;101391.16;5026920;28;20197;-76
2023/01/31 03:30:08;;;;;;;9.33;8.00;;;;;;;2.12;100.00;101396.25;5028631;28;20191;-73
2023/01/31 03:32:42;;;;;;;10.10;9.10;;;;;;;2.15;100.00;101392.97;5035128;28;20693;-74
2023/01/31 03:35:08;;;;;;;9.80;8.90;;;;;;;2.17;100.00;101402.44;5024471;28;20184;-74
2023/01/31 03:37:45;;;;;;;10.20;9.20;;;;;;;2.17;100.00;101396.47;5022326;28;20216;-73
2023/01/31 03:40:16;;;;;;;10.10;9.00;;;;;;;2.16;100.00;101400.69;5022590;28;20188;-74
2023/01/31 03:42:50;;;;;;;9.83;8.87;;;;;;;2.12;100.00;101401.38;5031544;28;20214;-74
2023/01/31 03:45:51;;;;;;;9.30;8.40;;;;;;;2.10;100.00;101406.41;5030431;28;20206;-75
2023/01/31 03:48:21;;;;;;;9.87;8.97;;;;;;;2.10;100.00;101410.66;4987541;28;20218;-75
2023/01/31 03:50:56;;;;;;;9.97;8.90;;;;;;;2.07;100.00;101411.38;5019494;28;20223;-74
2023/01/31 03:53:31;;;;;;;10.03;8.93;;;;;;;2.01;100.00;101415.34;5031563;28;20218;-73
2023/01/31 03:56:15;;;;;;;9.53;8.63;;;;;;;1.93;100.00;101420.13;5016558;28;20195;-74
2023/01/31 03:58:53;;;;;;;9.43;8.53;;;;;;;1.87;100.00;101422.41;5074545;27;20585;-76
2023/01/31 04:01:21;;;;;;;9.77;8.77;;;;;;;1.86;100.00;101424.06;5072936;28;20177;-77
2023/01/31 04:03:54;;;;;;;10.40;9.30;;;;;;;1.81;100.00;101423.88;5056229;28;20218;-76
2023/01/31 04:06:20;;;;;;;10.67;9.37;;;;;;;1.78;100.00;101423.72;5054943;28;20273;-75
2023/01/31 04:08:45;;;;;;;12.20;9.70;;;;;;;1.74;100.00;101421.84;5061042;28;20881;-75
2023/01/31 04:11:12;;;;;;;11.40;9.63;;;;;;;1.72;100.00;101422.56;5057141;28;20623;-75
2023/01/31 04:13:38;;;;;;;11.50;10.30;;;;;;;1.68;100.00;101424.97;5057444;28;20206;-76
2023/01/31 04:16:04;;;;;;;11.60;10.27;;;;;;;1.63;100.00;101431.56;5060532;28;20570;-76
2023/01/31 04:18:29;;;;;;;12.53;11.30;;;;;;;1.58;100.00;101433.03;5057462;28;20206;-75
2023/01/31 04:20:55;;;;;;;14.90;13.33;;;;;;;1.51;100.00;101419.13;5058317;28;20680;-77
2023/01/31 04:23:20;;;;;;;13.23;12.03;;;;;;;1.45;100.00;101429.03;5057238;28;20206;-76
2023/01/31 04:25:45;;;;;;;12.07;10.97;;;;;;;1.37;100.00;101425.25;5061022;28;20192;-77
2023/01/31 04:28:11;;;;;;;13.03;11.57;;;;;;;1.29;100.00;101432.53;5061751;28;20179;-75
2023/01/31 04:30:37;;;;;;;11.83;10.53;;;;;;;1.20;100.00;101434.66;5060713;28;20190;-76
2023/01/31 04:33:02;;;;;;;11.60;10.50;;;;;;;1.11;100.00;101437.66;5057786;28;20194;-75
2023/01/31 04:35:27;;;;;;;11.63;10.43;;;;;;;1.00;100.00;101426.94;5055870;28;20186;-76
2023/01/31 04:37:53;;;;;;;11.60;10.40;;;;;;;0.91;100.00;101427.34;5055831;28;20339;-75
2023/01/31 04:40:18;;;;;;;11.63;10.43;;;;;;;0.82;100.00;101419.25;5057470;28;20187;-75
2023/01/31 04:42:43;;;;;;;12.77;11.47;;;;;;;0.80;100.00;101420.84;5058049;28;20775;-75
2023/01/31 04:45:09;;;;;;;11.33;10.13;;;;;;;0.74;100.00;101423.09;5055745;28;20182;-75
2023/01/31 04:47:35;;;;;;;15.07;12.47;;;;;;;0.67;100.00;101432.09;5058385;28;20273;-75
2023/01/31 04:50:00;;;;;;;12.53;11.23;;;;;;;0.59;100.00;101418.13;5058089;28;20269;-75
2023/01/31 04:52:25;;;;;;;13.30;12.00;;;;;;;0.52;100.00;101427.13;5077776;28;20279;-76
2023/01/31 04:54:51;;;;;;;13.03;11.63;;;;;;;0.44;100.00;101430.94;5068687;28;20287;-75
2023/01/31 04:57:16;;;;;;;13.43;11.57;;;;;;;0.40;100.00;101426.50;5056521;28;20198;-76
2023/01/31 04:59:41;;;;;;;12.80;11.10;;;;;;;0.36;100.00;101419.50;5056099;28;20297;-76
2023/01/31 05:02:07;;;;;;;13.53;11.70;;;;;;;0.32;100.00;101427.78;5051832;28;20193;-75
2023/01/31 05:04:32;;;;;;;12.20;11.10;;;;;;;0.28;100.00;101426.75;5054216;28;20284;-74
2023/01/31 05:06:58;;;;;;;13.37;11.37;;;;;;;0.25;100.00;101429.13;5055936;28;20189;-75
2023/01/31 05:09:23;;;;;;;14.43;12.10;;;;;;;0.22;100.00;101418.78;5044736;28;20616;-75
2023/01/31 05:11:49;;;;;;;13.20;11.30;;;;;;;0.19;100.00;101419.53;5042456;28;20194;-75
2023/01/31 05:14:15;;;;;;;12.77;11.43;;;;;;;0.17;100.00;101415.13;5044529;28;20201;-76
2023/01/31 05:16:42;;;;;;;15.50;12.47;;;;;;;0.18;100.00;101416.88;5040486;28;20195;-75
2023/01/31 05:19:08;;;;;;;16.13;13.70;;;;;;;0.15;100.00;101421.00;5044681;28;20744;-75
2023/01/31 05:21:53;;;;;;;16.57;13.53;;;;;;;0.24;100.00;101412.13;5040982;28;20194;-75
2023/01/31 05:24:19;;;;;;;22.23;16.10;;;;;;;0.41;100.00;101424.03;5047103;28;20214;-75
2023/01/31 05:26:44;;;;;;;20.73;16.27;;;;;;;0.57;100.00;101428.22;5048933;28;20187;-75
2023/01/31 05:29:09;;;;;;;20.43;15.97;;;;;;;0.70;100.00;101424.63;5048630;28;20730;-75
2023/01/31 05:31:34;;;;;;;18.70;16.70;;;;;;;0.83;100.00;101426.09;5047155;28;20209;-77
2023/01/31 05:34:00;;;;;;;17.97;14.93;;;;;;;0.97;100.00;101428.47;5046850;28;20297;-75
2023/01/31 05:36:25;;;;;;;16.70;14.87;;;;;;;1.08;100.00;101418.75;5048225;28;20183;-76
2023/01/31 05:38:50;;;;;;;20.47;17.50;;;;;;;1.20;100.00;101422.78;5047827;28;20206;-76
2023/01/31 05:41:16;;;;;;;18.80;14.97;;;;;;;1.27;100.00;101416.28;5044104;28;20939;-76
2023/01/31 05:43:41;;;;;;;17.97;16.07;;;;;;;1.35;100.00;101419.19;5049134;28;20246;-76
2023/01/31 05:46:06;;;;;;;16.07;14.20;;;;;;;1.42;100.00;101426.34;5047743;28;20316;-75
2023/01/31 05:48:31;;;;;;;17.77;15.83;;;;;;;1.47;100.00;101429.13;5047817;28;20187;-75
2023/01/31 05:50:57;;;;;;;17.03;14.67;;;;;;;1.54;100.00;101430.28;5046210;28;20190;-75
2023/01/31 05:53:23;;;;;;;19.87;16.00;;;;;;;1.61;100.00;101424.63;5048659;28;20246;-75
2023/01/31 05:55:48;;;;;;;19.43;16.63;;;;;;;1.65;100.00;101439.28;5047844;28;20183;-75
2023/01/31 05:58:14;;;;;;;17.90;15.67;;;;;;;1.70;100.00;101430.19;5042860;28;21041;-77
2023/01/31 06:00:39;;;;;;;19.87;16.10;;;;;;;1.72;100.00;101428.56;5047106;28;20282;-76
2023/01/31 06:03:05;;;;;;;20.13;17.23;;;;;;;1.78;100.00;101430.53;5075572;28;20206;-75
2023/01/31 06:05:30;;;;;;;19.30;16.60;;;;;;;1.80;100.00;101437.44;5043547;28;20210;-75
2023/01/31 06:07:56;;;;;;;18.20;16.23;;;;;;;1.81;100.00;101438.31;5042533;28;20187;-76
2023/01/31 06:10:21;;;;;;;19.53;15.97;;;;;;;1.86;100.00;101446.19;5038386;28;20282;-73
2023/01/31 06:12:47;;;;;;;18.00;15.80;;;;;;;1.87;100.00;101447.94;5041611;28;20269;-76
2023/01/31 06:15:12;;;;;;;16.77;14.97;;;;;;;1.87;100.00;101443.69;5047131;28;20192;-75
2023/01/31 06:17:38;;;;;;;17.97;15.50;;;;;;;1.89;100.00;101447.19;5043174;28;20214;-75
2023/01/31 06:20:03;;;;;;;21.37;15.97;;;;;;;1.91;100.00;101445.59;5043192;28;20274;-76
2023/01/31 06:22:29;;;;;;;22.00;16.90;;;;;;;1.96;100.00;101445.78;5045503;28;20702;-75
2023/01/31 06:24:54;;;;;;;17.73;15.50;;;;;;;1.93;100.00;101440.53;5049102;28;20210;-75
2023/01/31 06:27:19;;;;;;;17.10;15.37;;;;;;;1.95;100.00;101431.28;5049934;28;20179;-76
2023/01/31 06:29:45;;;;;;;18.17;14.80;;;;;;;1.95;100.00;101434.72;5043000;28;20187;-74
2023/01/31 06:32:10;;;;;;;20.17;15.57;;;;;;;1.98;100.00;101444.19;5047461;28;20185;-75
2023/01/31 06:34:35;;;;;;;18.23;15.23;;;;;;;1.96;100.00;101440.69;5048795;28;20277;-75
2023/01/31 06:37:01;;;;;;;17.93;15.40;;;;;;;1.97;100.00;101439.88;5052456;28;20293;-76
2023/01/31 06:39:26;;;;;;;16.63;14.83;;;;;;;1.96;100.00;101439.03;5046338;28;20218;-75
2023/01/31 06:41:51;;;;;;;16.83;14.00;;;;;;;1.93;100.00;101437.97;5038787;28;20202;-74
2023/01/31 06:44:17;;;;;;;16.17;14.47;;;;;;;1.92;100.00;101439.69;5036718;28;20289;-75
2023/01/31 06:46:42;;;;;;;16.87;13.80;;;;;;;1.91;100.00;101447.25;5042449;28;20218;-74
2023/01/31 06:49:08;;;;;;;15.60;14.00;;;;;;;1.89;100.00;101439.53;5042354;28;20198;-76
2023/01/31 06:51:33;;;;;;;16.40;12.97;;;;;;;1.89;100.00;101438.69;5040852;28;20655;-77
2023/01/31 06:53:58;;;;;;;17.23;13.33;;;;;;;1.87;100.00;101459.00;5041998;28;20352;-74
2023/01/31 06:56:23;;;;;;;15.60;13.43;;;;;;;1.84;100.00;101451.22;5039079;28;20333;-74
2023/01/31 06:58:49;;;;;;;15.33;13.77;;;;;;;1.83;100.00;101446.91;5049289;28;20215;-75
2023/01/31 07:01:14;;;;;;;14.43;12.90;;;;;;;1.84;100.00;101456.31;5072704;28;20179;-77
2023/01/31 07:03:40;;;;;;;15.07;13.03;;;;;;;1.82;100.00;101456.25;5063394;28;20211;-74
2023/01/31 07:06:07;;;;;;;14.73;13.23;;;;;;;1.83;100.00;101455.44;5047473;28;20667;-75
2023/01/31 07:08:33;;;;;;;13.93;12.50;;;;;;;1.84;100.00;101456.31;5051231;28;20295;-75
2023/01/31 07:11:00;;;;;;;13.90;12.50;;;;;;;1.82;100.00;101453.69;5045484;28;20174;-75
2023/01/31 07:13:26;;;;;;;16.17;12.53;;;;;;;1.79;100.00;101448.44;5041723;28;20209;-75
2023/01/31 07:15:51;;;;;;;14.47;12.93;;;;;;;1.79;100.00;101448.44;5047365;28;20182;-74
2023/01/31 07:18:17;;;;;;;15.33;12.87;;;;;;;1.73;100.00;101449.84;5048757;28;20691;-75
2023/01/31 07:20:42;;;;;;;15.73;13.63;;;;;;;1.66;100.00;101456.34;5042641;28;20212;-74
2023/01/31 07:23:08;;;;;;;15.80;13.07;;;;;;;1.55;100.00;101458.41;5047844;28;20651;-74
2023/01/31 07:25:34;;;;;;;13.73;12.33;;;;;;;1.44;100.00;101449.38;5049062;28;20186;-75
2023/01/31 07:28:00;;;;;;;14.93;13.43;;;;;;;1.32;100.00;101448.00;5047553;28;20183;-74
2023/01/31 07:30:26;;;;;;;14.97;13.47;;;;;;;1.24;100.00;101439.09;5047340;28;20537;-74
2023/01/31 07:32:51;;;;;;;14.83;13.33;;;;;;;1.14;100.00;101437.78;5047888;28;20244;-75
2023/01/31 07:35:17;;;;;;;15.63;13.57;;;;;;;1.09;100.00;101443.44;5048198;28;20191;-76
2023/01/31 07:37:43;;;;;;;15.10;12.47;;;;;;;1.01;100.00;101450.72;5046107;28;20195;-75
2023/01/31 07:40:10;;;;;;;14.80;13.30;;;;;;;0.96;100.00;101452.19;5050893;28;20190;-76
2023/01/31 07:42:35;;;;;;;14.70;13.20;;;;;;;0.89;100.00;101458.66;5042932;28;20207;-74
2023/01/31 07:45:00;;;;;;;15.43;13.70;;;;;;;0.86;100.00;101459.38;5043858;28;20558;-76
2023/01/31 07:47:26;;;;;;;14.33;12.53;;;;;;;0.86;100.00;101450.88;5045838;28;20224;-75
2023/01/31 07:49:51;;;;;;;15.40;13.83;;;;;;;0.82;100.00;101456.59;5043330;28;20183;-75
2023/01/31 07:52:16;;;;;;;14.30;12.90;;;;;;;0.78;100.00;101455.59;5044549;28;20189;-75
2023/01/31 07:54:42;;;;;;;14.10;12.67;;;;;;;0.78;100.00;101457.22;5048340;28;20182;-75
2023/01/31 07:57:07;;;;;;;14.53;13.03;;;;;;;0.75;100.00;101451.22;5045829;28;20230;-75
2023/01/31 07:59:32;;;;;;;14.83;13.10;;;;;;;0.76;100.00;101449.53;5045302;28;20182;-75
2023/01/31 08:04:41;;;;;;;15.33;13.50;;;;;;;0.88;100.00;101455.22;5047321;28;20197;-75
2023/01/31 08:07:09;;;;;;;15.00;13.47;;;;;;;0.98;100.00;101448.91;5044464;28;20179;-76
2023/01/31 08:09:34;;;;;;;14.07;12.53;;;;;;;1.04;100.00;101451.78;5055821;28;20185;-75
2023/01/31 08:11:59;;;;;;;14.27;12.80;;;;;;;1.10;100.00;101452.84;5047051;28;20190;-75
2023/01/31 08:14:27;;;;;;;12.73;11.37;;;;;;;1.18;100.00;101449.00;5049190;28;20754;-77
2023/01/31 08:16:53;;;;;;;13.50;11.60;;;;;;;1.34;100.00;101445.50;5038259;28;20289;-76
2023/01/31 08:19:18;;;;;;;13.83;11.17;;;;;;;1.52;100.00;101455.69;5045734;28;20182;-74
2023/01/31 08:21:43;;;;;;;12.60;11.13;;;;;;;1.71;100.00;101456.56;5043073;28;20194;-76
2023/01/31 08:24:09;;;;;;;14.37;11.60;;;;;;;1.85;100.00;101455.50;5047450;28;20311;-75
2023/01/31 08:26:34;;;;;;;12.50;11.00;;;;;;;1.98;100.00;101455.25;5047814;28;20749;-76
2023/01/31 08:29:00;;;;;;;12.07;10.57;;;;;;;2.06;100.00;101449.63;5047236;28;20698;-76
2023/01/31 08:31:26;;;;;;;12.40;10.77;;;;;;;2.05;100.00;101453.00;5047174;28;20175;-75
2023/01/31 08:33:52;;;;;;;11.43;10.23;;;;;;;2.05;100.00;101451.28;5044257;28;20947;-75
2023/01/31 08:36:20;;;;;;;11.20;9.77;;;;;;;2.15;100.00;101462.81;5040176;28;20187;-76
2023/01/31 08:38:47;;;;;;;12.27;11.03;;;;;;;2.29;100.00;101468.53;5038336;28;20199;-75
2023/01/31 08:41:13;;;;;;;12.23;11.03;;;;;;;2.37;100.00;101456.94;5039742;28;20179;-76
2023/01/31 08:43:38;;;;;;;11.13;10.03;;;;;;;2.40;100.00;101457.09;5038408;28;20712;-77
2023/01/31 08:46:04;;;;;;;11.83;10.70;;;;;;;2.43;100.00;101466.56;5042669;28;20193;-76
2023/01/31 08:48:34;;;;;;;11.83;10.63;;;;;;;2.50;100.00;101468.59;5041141;28;20604;-75
2023/01/31 08:51:01;;;;;;;11.77;10.67;;;;;;;2.58;100.00;101472.34;5041760;28;21026;-75
2023/01/31 08:53:27;;;;;;;11.23;10.03;;;;;;;2.67;100.00;101478.66;5041456;28;20218;-76
2023/01/31 08:55:57;;;;;;;12.13;10.80;;;;;;;2.83;100.00;101459.72;5043158;28;20233;-74
2023/01/31 08:58:22;;;;;;;11.97;10.77;;;;;;;3.05;100.00;101458.91;5043493;28;20260;-76
2023/01/31 09:00:48;;;;;;;11.67;10.47;;;;;;;3.27;100.00;101452.13;5044205;28;20194;-75
2023/01/31 09:03:17;;;;;;;11.50;10.47;;;;;;;3.47;100.00;101460.56;5050699;28;20277;-75
2023/01/31 09:05:44;;;;;;;10.87;9.80;;;;;;;3.68;100.00;101452.84;5045125;28;20195;-76
2023/01/31 09:08:09;;;;;;;11.43;10.33;;;;;;;3.91;100.00;101463.09;5048946;28;20178;-75
2023/01/31 09:10:35;;;;;;;11.20;10.00;;;;;;;4.08;100.00;101463.72;5052839;28;20182;-76
2023/01/31 09:13:00;;;;;;;11.27;10.17;;;;;;;4.16;100.00;101464.00;5068484;28;20210;-77
2023/01/31 09:15:25;;;;;;;10.50;9.53;;;;;;;4.16;100.00;101469.13;5075122;28;20284;-75
2023/01/31 09:17:51;;;;;;;10.03;9.03;;;;;;;4.14;100.00;101468.19;5047890;28;20191;-75
2023/01/31 09:20:17;;;;;;;9.93;9.03;;;;;;;4.09;100.00;101471.44;5049415;28;20182;-74
2023/01/31 09:22:42;;;;;;;9.33;8.53;;;;;;;4.02;100.00;101466.94;5047696;28;20841;-75
2023/01/31 09:25:08;;;;;;;9.67;8.77;;;;;;;4.00;100.00;101468.56;5050198;28;20174;-75
2023/01/31 09:27:35;;;;;;;10.30;9.27;;;;;;;3.98;100.00;101475.31;5049779;28;20225;-76
2023/01/31 09:30:00;;;;;;;10.50;9.47;;;;;;;3.99;100.00;101481.31;5048529;28;20792;-75
2023/01/31 09:32:26;;;;;;;10.07;9.17;;;;;;;4.00;100.00;101481.34;5049639;28;20185;-76
2023/01/31 09:34:51;;;;;;;10.10;9.10;;;;;;;4.00;100.00;101471.13;5048794;28;20183;-75
2023/01/31 09:37:16;;;;;;;10.13;8.50;;;;;;;4.00;100.00;101471.13;5050969;28;20199;-74
2023/01/31 09:39:42;;;;;;;10.57;9.47;;;;;;;3.95;100.00;101482.88;5048776;28;20195;-75
2023/01/31 09:42:13;;;;;;;9.27;8.37;;;;;;;3.89;100.00;101493.75;5049742;28;20198;-75
2023/01/31 09:44:42;;;;;;;10.37;8.90;;;;;;;3.86;100.00;101503.88;5045109;28;20198;-75
2023/01/31 09:47:14;;;;;;;10.07;9.17;;;;;;;3.93;100.00;101487.09;5045017;28;20699;-76
2023/01/31 09:49:47;;;;;;;9.70;8.80;;;;;;;4.08;100.00;101490.19;5045995;28;20183;-74
2023/01/31 09:52:13;;;;;;;9.27;8.47;;;;;;;4.25;100.00;101478.00;5047592;28;20561;-76
2023/01/31 09:54:40;;;;;;;9.93;8.93;;;;;;;4.48;100.00;101479.66;5045540;28;20193;-75
2023/01/31 09:57:11;;;;;;;10.67;9.57;;;;;;;4.70;100.00;101483.84;5047085;28;20694;-75
2023/01/31 09:59:47;;;;;;;10.73;9.63;;;;;;;4.92;100.00;101476.84;5044822;28;20200;-75
2023/01/31 10:02:27;;;;;;;11.43;10.13;;;;;;;5.22;100.00;101479.56;5042020;28;20748;-76
2023/01/31 10:05:21;;;;;;;10.67;9.50;;;;;;;5.44;100.00;101483.69;5047673;28;20515;-75
2023/01/31 10:08:12;;;;;;;10.60;9.50;;;;;;;5.47;100.00;101480.34;5040156;28;20186;-75
2023/01/31 10:10:44;;;;;;;11.03;9.93;;;;;;;5.45;100.00;101485.44;5038382;28;20183;-74
2023/01/31 10:13:40;;;;;;;10.87;9.87;;;;;;;5.43;99.81;101481.94;5042859;28;20311;-74
2023/01/31 10:16:14;;;;;;;10.37;9.37;;;;;;;5.36;100.00;101486.84;5040918;28;20274;-73
2023/01/31 10:18:46;;;;;;;10.30;9.33;;;;;;;5.30;100.00;101475.53;5041471;28;20215;-74
2023/01/31 10:21:18;;;;;;;10.23;9.17;;;;;;;5.34;100.00;101472.25;5047510;28;20188;-74
2023/01/31 10:23:49;;;;;;;9.37;8.50;;;;;;;5.32;99.94;101467.91;5044242;28;20209;-77
2023/01/31 10:26:36;;;;;;;9.37;8.47;;;;;;;5.33;99.33;101477.34;5047878;28;20779;-76
2023/01/31 10:29:27;;;;;;;9.90;8.90;;;;;;;5.40;99.25;101481.84;5044584;28;20184;-74
2023/01/31 10:31:59;;;;;;;9.70;8.80;;;;;;;5.46;98.58;101487.19;5043610;28;20196;-73
2023/01/31 10:34:41;;;;;;;9.83;8.83;;;;;;;5.47;98.00;101483.78;5043002;28;20210;-76
2023/01/31 10:37:18;;;;;;;12.80;8.73;;;;;;;5.44;97.36;101476.00;5042896;28;20199;-73
2023/01/31 10:39:49;;;;;;;9.50;8.50;;;;;;;5.41;98.09;101482.72;5041611;28;20194;-77
2023/01/31 10:42:22;;;;;;;8.97;8.07;;;;;;;5.44;98.24;101478.56;5041508;28;20194;-74
2023/01/31 10:44:53;;;;;;;9.47;8.57;;;;;;;5.45;98.35;101474.28;5046978;28;20540;-73
2023/01/31 10:47:25;;;;;;;10.47;9.17;;;;;;;5.51;97.46;101469.34;5046487;28;20174;-74
2023/01/31 10:49:50;;;;;;;10.43;8.83;;;;;;;5.59;97.05;101459.31;5047722;28;20614;-73
2023/01/31 10:52:44;;;;;;;10.20;9.10;;;;;;;5.63;96.90;101446.59;5046087;28;20189;-74
2023/01/31 10:55:32;;;;;;;9.20;8.30;;;;;;;5.80;96.19;101436.84;5044059;28;20209;-74
2023/01/31 10:57:57;;;;;;;10.20;8.40;;;;;;;5.95;95.86;101428.69;5044187;28;20360;-75
2023/01/31 11:00:31;;;;;;;9.73;8.80;;;;;;;6.03;95.99;101425.50;5044452;28;20410;-77
2023/01/31 11:02:57;;;;;;;9.83;8.83;;;;;;;6.07;95.93;101410.22;5046770;28;20205;-74
2023/01/31 11:05:25;;;;;;;9.37;7.90;;;;;;;6.12;96.16;101407.75;5039333;28;20189;-77
2023/01/31 11:07:51;;;;;;;8.73;7.83;;;;;;;6.20;96.24;101411.41;5043332;28;20196;-74
2023/01/31 11:10:24;;;;;;;8.30;7.43;;;;;;;6.23;95.45;101408.91;5048454;28;20197;-74
2023/01/31 11:13:00;;;;;;;8.30;7.43;;;;;;;6.29;94.54;101389.34;5043806;28;20208;-76
2023/01/31 11:15:28;;;;;;;8.53;7.70;;;;;;;6.35;93.57;101387.81;5046439;28;20637;-74
2023/01/31 11:17:59;;;;;;;7.93;7.13;;;;;;;6.36;93.56;101379.28;5046969;28;20193;-74
2023/01/31 11:20:25;;;;;;;9.70;8.40;;;;;;;6.37;93.93;101386.16;5037274;28;20239;-77
2023/01/31 11:22:52;;;;;;;8.37;7.47;;;;;;;6.39;94.15;101386.19;5043538;28;20197;-74
2023/01/31 11:25:21;;;;;;;8.77;7.87;;;;;;;6.42;94.28;101385.41;5069025;28;20191;-75
2023/01/31 11:27:47;;;;;;;7.77;6.97;;;;;;;6.42;94.00;101386.28;5068820;28;20185;-75
2023/01/31 11:30:24;;;;;;;8.73;7.90;;;;;;;6.43;93.74;101389.72;5046141;28;20172;-76
2023/01/31 11:32:50;;;;;;;7.97;7.07;;;;;;;6.42;93.69;101383.69;5044213;28;20206;-77